createdAt,value
2017-09-26T00:01:17.176Z,89.47
2017-09-26T00:03:45.826Z,84.40
2017-09-26T00:06:13.295Z,91.00
2017-09-26T00:08:40.815Z,87.03
2017-09-26T00:11:08.270Z,82.67
2017-09-26T00:13:35.734Z,99.33
2017-09-26T00:16:03.226Z,82.37
2017-09-26T00:18:30.690Z,85.67
2017-09-26T00:20:58.162Z,77.77
2017-09-26T00:23:25.650Z,81.50
2017-09-26T00:25:53.146Z,99.90
2017-09-26T00:28:20.793Z,106.83
2017-09-26T00:30:48.266Z,121.13
2017-09-26T00:33:16.578Z,130.83
2017-09-26T00:35:44.049Z,128.30
2017-09-26T00:38:13.916Z,118.23
2017-09-26T00:40:41.391Z,131.97
2017-09-26T00:43:08.861Z,113.10
2017-09-26T00:45:36.338Z,104.90
2017-09-26T00:48:03.824Z,107.90
2017-09-26T00:50:31.282Z,104.30
2017-09-26T00:52:58.760Z,94.80
2017-09-26T00:55:26.222Z,97.27
2017-09-26T00:57:53.713Z,86.17
2017-09-26T01:00:21.173Z,72.70
2017-09-26T01:02:48.662Z,76.60
2017-09-26T01:05:22.902Z,57.92
2017-09-26T01:07:50.394Z,61.90
2017-09-26T01:10:17.964Z,57.20
2017-09-26T01:12:45.430Z,54.70
2017-09-26T01:15:12.898Z,93.50
2017-09-26T01:17:41.140Z,86.30
2017-09-26T01:20:08.604Z,55.70
2017-09-26T01:22:36.104Z,61.63
2017-09-26T01:25:03.574Z,181.87
2017-09-26T01:27:31.032Z,263.90
2017-09-26T01:29:58.609Z,86.07
2017-09-26T01:32:26.125Z,145.73
2017-09-26T01:34:53.654Z,203.63
2017-09-26T01:37:21.163Z,83.97
2017-09-26T01:39:49.402Z,108.03
2017-09-26T01:42:17.785Z,72.50
2017-09-26T01:44:45.249Z,87.13
2017-09-26T01:47:12.741Z,68.20
2017-09-26T01:49:40.205Z,76.73
2017-09-26T01:52:07.685Z,76.37
2017-09-26T01:54:35.149Z,86.40
2017-09-26T01:57:05.401Z,115.73
2017-09-26T01:59:39.478Z,157.73
2017-09-26T02:02:07.393Z,62.80
2017-09-26T02:04:34.881Z,51.73
2017-09-26T02:07:03.173Z,87.90
2017-09-26T02:09:30.630Z,58.10
2017-09-26T02:11:58.134Z,66.97
2017-09-26T02:14:25.598Z,99.33
2017-09-26T02:16:53.062Z,55.07
2017-09-26T02:19:20.637Z,50.80
2017-09-26T02:21:48.898Z,82.60
2017-09-26T02:24:16.349Z,57.07
2017-09-26T02:26:43.801Z,50.20
2017-09-26T02:29:11.326Z,54.80
2017-09-26T02:31:38.790Z,62.17
2017-09-26T02:34:06.287Z,64.27
2017-09-26T02:36:33.742Z,54.90
2017-09-26T02:39:01.198Z,52.30
2017-09-26T02:41:28.688Z,42.57
2017-09-26T02:43:56.149Z,48.53
2017-09-26T02:46:23.602Z,48.80
2017-09-26T02:48:51.122Z,49.07
2017-09-26T02:51:18.581Z,47.30
2017-09-26T02:53:46.049Z,48.53
2017-09-26T02:56:13.529Z,50.33
2017-09-26T02:58:41.810Z,46.20
2017-09-26T03:01:10.099Z,44.17
2017-09-26T03:03:37.562Z,43.97
2017-09-26T03:06:05.061Z,42.63
2017-09-26T03:08:32.541Z,47.00
2017-09-26T03:11:00.060Z,45.63
2017-09-26T03:13:27.546Z,53.23
2017-09-26T03:15:55.790Z,54.53
2017-09-26T03:18:23.283Z,59.03
2017-09-26T03:20:50.761Z,63.47
2017-09-26T03:23:18.865Z,66.97
2017-09-26T03:25:46.356Z,73.80
2017-09-26T03:28:13.894Z,95.63
2017-09-26T03:30:41.391Z,71.60
2017-09-26T03:33:08.849Z,73.20
2017-09-26T03:35:36.311Z,70.03
2017-09-26T03:38:03.800Z,72.93
2017-09-26T03:40:31.267Z,76.00
2017-09-26T03:42:58.737Z,94.93
2017-09-26T03:45:26.229Z,96.93
2017-09-26T03:47:53.697Z,83.07
2017-09-26T03:50:21.166Z,83.10
2017-09-26T03:52:50.362Z,102.13
2017-09-26T03:55:17.833Z,94.33
2017-09-26T03:57:45.374Z,92.13
2017-09-26T04:00:12.842Z,89.73
2017-09-26T04:02:40.308Z,88.97
2017-09-26T04:05:07.810Z,88.60
2017-09-26T04:07:35.340Z,94.37
2017-09-26T04:10:03.581Z,85.43
2017-09-26T04:12:31.172Z,83.90
2017-09-26T04:14:58.645Z,103.67
2017-09-26T04:17:26.115Z,85.23
2017-09-26T04:19:53.677Z,94.57
2017-09-26T04:22:21.178Z,90.17
2017-09-26T04:24:48.637Z,85.53
2017-09-26T04:27:16.113Z,97.63
2017-09-26T04:29:43.650Z,90.77
2017-09-26T04:32:11.114Z,87.82
2017-09-26T04:34:38.578Z,92.63
2017-09-26T04:37:06.075Z,88.73
2017-09-26T04:39:33.538Z,88.97
2017-09-26T04:42:01.005Z,90.47
2017-09-26T04:44:28.566Z,100.43
2017-09-26T04:46:56.033Z,108.10
2017-09-26T04:49:23.599Z,92.47
2017-09-26T04:51:51.056Z,86.07
2017-09-26T04:54:18.553Z,102.63
2017-09-26T04:56:46.018Z,96.70
2017-09-26T04:59:13.474Z,95.90
2017-09-26T05:01:40.964Z,96.53
2017-09-26T05:04:08.469Z,100.63
2017-09-26T05:06:35.946Z,88.93
2017-09-26T05:09:03.455Z,99.23
2017-09-26T05:11:30.926Z,111.07
2017-09-26T05:13:58.398Z,109.73
2017-09-26T05:16:25.874Z,99.57
2017-09-26T05:18:53.364Z,110.00
2017-09-26T05:21:21.737Z,104.18
2017-09-26T05:23:50.894Z,99.73
2017-09-26T05:26:18.390Z,104.17
2017-09-26T05:28:46.614Z,89.83
2017-09-26T05:31:14.306Z,107.50
2017-09-26T05:33:41.781Z,95.47
2017-09-26T05:36:09.250Z,104.87
2017-09-26T05:38:36.741Z,98.33
2017-09-26T05:41:04.233Z,102.33
2017-09-26T05:43:31.721Z,105.37
2017-09-26T05:45:59.998Z,105.80
2017-09-26T05:48:28.221Z,109.57
2017-09-26T05:50:55.699Z,102.80
2017-09-26T05:53:23.190Z,100.93
2017-09-26T05:55:52.240Z,103.62
2017-09-26T05:58:19.726Z,112.17
2017-09-26T06:00:47.250Z,103.63
2017-09-26T06:03:14.782Z,96.63
2017-09-26T06:05:42.257Z,100.07
2017-09-26T06:08:09.762Z,94.53
2017-09-26T06:10:37.305Z,97.77
2017-09-26T06:13:04.775Z,101.90
2017-09-26T06:15:32.238Z,103.10
2017-09-26T06:17:59.735Z,107.40
2017-09-26T06:20:27.206Z,93.63
2017-09-26T06:22:54.703Z,98.10
2017-09-26T06:25:22.169Z,89.27
2017-09-26T06:27:49.637Z,97.70
2017-09-26T06:30:17.130Z,93.40
2017-09-26T06:32:44.631Z,109.90
2017-09-26T06:35:12.098Z,101.80
2017-09-26T06:37:39.578Z,112.80
2017-09-26T06:40:07.161Z,105.37
2017-09-26T06:42:34.647Z,100.00
2017-09-26T06:45:02.144Z,92.97
2017-09-26T06:47:29.691Z,102.23
2017-09-26T06:49:57.974Z,104.73
2017-09-26T06:52:25.487Z,114.83
2017-09-26T06:54:52.945Z,97.57
2017-09-26T06:57:20.415Z,99.53
2017-09-26T06:59:47.922Z,106.77
2017-09-26T07:02:15.382Z,104.80
2017-09-26T07:04:42.851Z,100.97
2017-09-26T07:07:10.377Z,100.57
2017-09-26T07:09:37.971Z,104.03
2017-09-26T07:12:05.421Z,92.77
2017-09-26T07:14:32.876Z,98.50
2017-09-26T07:17:00.366Z,93.37
2017-09-26T07:19:27.821Z,94.77
2017-09-26T07:21:55.300Z,100.00
2017-09-26T07:24:22.952Z,96.93
2017-09-26T07:26:50.446Z,100.83
2017-09-26T07:29:17.906Z,94.73
2017-09-26T07:31:45.394Z,92.70
2017-09-26T07:34:13.660Z,93.00
2017-09-26T07:36:41.139Z,89.67
2017-09-26T07:39:09.415Z,100.17
2017-09-26T07:41:37.661Z,98.83
2017-09-26T07:44:05.129Z,105.07
2017-09-26T07:46:32.587Z,96.70
2017-09-26T07:49:00.094Z,109.83
2017-09-26T07:51:27.630Z,103.77
2017-09-26T07:53:55.097Z,115.27
2017-09-26T07:56:23.382Z,110.65
2017-09-26T07:58:50.865Z,124.90
2017-09-26T08:01:18.578Z,127.43
2017-09-26T08:03:47.021Z,109.83
2017-09-26T08:06:14.813Z,101.20
2017-09-26T08:08:42.501Z,98.87
2017-09-26T08:11:09.961Z,98.87
2017-09-26T08:13:37.538Z,92.53
2017-09-26T08:16:05.045Z,93.17
2017-09-26T08:18:32.645Z,96.27
2017-09-26T08:21:00.111Z,86.60
2017-09-26T08:23:27.578Z,86.10
2017-09-26T08:25:55.065Z,81.23
2017-09-26T08:28:22.549Z,85.07
2017-09-26T08:30:50.127Z,79.63
2017-09-26T08:33:18.345Z,83.67
2017-09-26T08:35:45.810Z,78.27
2017-09-26T08:38:13.353Z,90.30
2017-09-26T08:40:40.819Z,80.63
2017-09-26T08:43:08.309Z,83.20
2017-09-26T08:45:35.791Z,81.03
2017-09-26T08:48:03.244Z,81.50
2017-09-26T08:50:30.726Z,90.30
2017-09-26T08:52:58.221Z,83.07
2017-09-26T08:55:25.689Z,83.30
2017-09-26T08:57:54.100Z,86.33
2017-09-26T09:00:21.567Z,88.47
2017-09-26T09:02:49.045Z,90.60
2017-09-26T09:05:16.514Z,88.70
2017-09-26T09:07:43.997Z,101.87
2017-09-26T09:10:11.493Z,94.43
2017-09-26T09:12:39.906Z,86.17
2017-09-26T09:15:07.385Z,89.67
2017-09-26T09:17:34.850Z,95.80
2017-09-26T09:20:02.355Z,112.57
2017-09-26T09:22:30.606Z,75.57
2017-09-26T09:24:58.074Z,74.07
2017-09-26T09:27:25.570Z,84.43
2017-09-26T09:29:53.040Z,84.67
2017-09-26T09:32:20.510Z,75.13
2017-09-26T09:34:47.993Z,71.83
2017-09-26T09:37:15.494Z,72.50
2017-09-26T09:39:42.995Z,72.57
2017-09-26T09:42:10.474Z,84.60
2017-09-26T09:44:37.932Z,74.03
2017-09-26T09:47:05.417Z,77.30
2017-09-26T09:49:33.662Z,78.53
2017-09-26T09:52:01.147Z,78.27
2017-09-26T09:54:29.443Z,79.03
2017-09-26T09:56:56.942Z,71.50
2017-09-26T09:59:25.403Z,79.30
2017-09-26T10:01:52.946Z,88.03
2017-09-26T10:04:20.433Z,68.17
2017-09-26T10:06:47.884Z,64.40
2017-09-26T10:09:15.395Z,62.97
2017-09-26T10:11:43.668Z,62.60
2017-09-26T10:14:11.154Z,59.60
2017-09-26T10:16:38.644Z,62.37
2017-09-26T10:19:06.137Z,68.37
2017-09-26T10:21:33.612Z,56.33
2017-09-26T10:24:01.137Z,52.27
2017-09-26T10:26:28.609Z,59.20
2017-09-26T10:28:56.166Z,64.60
2017-09-26T10:31:23.658Z,64.13
2017-09-26T10:33:51.134Z,59.20
2017-09-26T10:36:18.582Z,57.80
2017-09-26T10:38:46.061Z,56.77
2017-09-26T10:41:13.518Z,53.20
2017-09-26T10:43:41.174Z,53.03
2017-09-26T10:46:08.698Z,45.30
2017-09-26T10:48:36.954Z,55.80
2017-09-26T10:51:04.433Z,56.47
2017-09-26T10:53:32.689Z,55.60
2017-09-26T10:56:00.175Z,60.80
2017-09-26T10:58:28.506Z,59.07
2017-09-26T11:00:57.201Z,72.90
2017-09-26T11:03:24.677Z,55.53
2017-09-26T11:05:52.184Z,53.00
2017-09-26T11:08:19.646Z,54.43
2017-09-26T11:10:47.116Z,58.33
2017-09-26T11:13:14.618Z,53.00
2017-09-26T11:15:42.099Z,54.43
2017-09-26T11:18:10.384Z,47.53
2017-09-26T11:20:37.889Z,52.80
2017-09-26T11:23:05.376Z,64.33
2017-09-26T11:25:32.833Z,52.47
2017-09-26T11:28:00.341Z,62.43
2017-09-26T11:30:27.806Z,60.27
2017-09-26T11:32:55.270Z,52.40
2017-09-26T11:35:22.765Z,53.97
2017-09-26T11:37:50.249Z,48.37
2017-09-26T11:40:17.719Z,51.03
2017-09-26T11:42:45.213Z,51.57
2017-09-26T11:45:12.705Z,52.53
2017-09-26T11:47:40.197Z,59.10
2017-09-26T11:50:07.733Z,46.97
2017-09-26T11:52:35.981Z,42.90
2017-09-26T11:55:03.517Z,43.87
2017-09-26T11:57:30.973Z,49.60
2017-09-26T11:59:58.435Z,47.50
2017-09-26T12:02:25.921Z,49.20
2017-09-26T12:04:53.397Z,43.20
2017-09-26T12:07:20.901Z,40.17
2017-09-26T12:09:48.381Z,43.23
2017-09-26T12:12:15.884Z,40.37
2017-09-26T12:14:43.344Z,40.50
2017-09-26T12:17:11.659Z,37.57
2017-09-26T12:19:39.133Z,45.17
2017-09-26T12:22:06.625Z,43.50
2017-09-26T12:24:34.861Z,38.70
2017-09-26T12:27:02.367Z,47.37
2017-09-26T12:29:29.829Z,37.80
2017-09-26T12:31:57.293Z,46.30
2017-09-26T12:34:24.781Z,42.43
2017-09-26T12:36:52.268Z,41.57
2017-09-26T12:39:19.751Z,47.97
2017-09-26T12:41:48.013Z,40.03
2017-09-26T12:44:15.488Z,42.37
2017-09-26T12:46:43.722Z,38.73
2017-09-26T12:49:11.287Z,49.07
2017-09-26T12:51:38.742Z,39.23
2017-09-26T12:54:06.278Z,44.10
2017-09-26T12:56:33.761Z,42.27
2017-09-26T12:59:01.285Z,40.67
2017-09-26T13:01:28.781Z,43.80
2017-09-26T13:03:56.250Z,39.60
2017-09-26T13:06:23.718Z,38.97
2017-09-26T13:08:51.203Z,37.80
2017-09-26T13:11:18.673Z,41.70
2017-09-26T13:13:46.184Z,37.57
2017-09-26T13:16:13.647Z,38.00
2017-09-26T13:18:41.125Z,41.23
2017-09-26T13:21:09.441Z,42.37
2017-09-26T13:23:36.910Z,45.60
2017-09-26T13:26:04.390Z,38.80
2017-09-26T13:28:31.881Z,41.13
2017-09-26T13:30:59.382Z,35.53
2017-09-26T13:33:26.861Z,40.90
2017-09-26T13:35:54.360Z,31.97
2017-09-26T13:38:22.593Z,35.83
2017-09-26T13:40:50.089Z,34.20
2017-09-26T13:43:18.323Z,38.43
2017-09-26T13:45:45.854Z,29.77
2017-09-26T13:48:13.308Z,31.80
2017-09-26T13:50:40.794Z,30.70
2017-09-26T13:53:08.270Z,33.50
2017-09-26T13:55:35.766Z,31.00
2017-09-26T13:58:03.994Z,35.20
2017-09-26T14:00:31.481Z,33.13
2017-09-26T14:03:00.385Z,35.93
2017-09-26T14:05:27.845Z,39.07
2017-09-26T14:07:55.337Z,36.70
2017-09-26T14:10:22.906Z,44.30
2017-09-26T14:12:50.373Z,32.63
2017-09-26T14:15:17.871Z,33.20
2017-09-26T14:17:46.144Z,31.57
2017-09-26T14:20:13.614Z,32.33
2017-09-26T14:22:41.114Z,31.40
2017-09-26T14:25:08.585Z,38.07
2017-09-26T14:27:36.052Z,39.60
2017-09-26T14:30:03.553Z,26.33
2017-09-26T14:32:31.798Z,29.93
2017-09-26T14:35:00.962Z,29.20
2017-09-26T14:37:28.466Z,33.93
2017-09-26T14:39:55.938Z,31.40
2017-09-26T14:42:24.201Z,29.77
2017-09-26T14:44:51.699Z,28.33
2017-09-26T14:47:19.197Z,31.23
2017-09-26T14:49:46.664Z,26.90
2017-09-26T14:52:14.179Z,26.17
2017-09-26T14:54:41.660Z,31.93
2017-09-26T14:57:09.149Z,30.60
2017-09-26T14:59:36.605Z,37.93
2017-09-26T15:02:04.077Z,27.97
2017-09-26T15:04:31.533Z,31.90
2017-09-26T15:07:00.717Z,25.80
2017-09-26T15:09:28.193Z,28.60
2017-09-26T15:11:56.419Z,31.30
2017-09-26T15:14:23.897Z,30.90
2017-09-26T15:16:51.354Z,27.23
2017-09-26T15:19:18.837Z,29.43
2017-09-26T15:21:46.300Z,28.40
2017-09-26T15:24:14.521Z,31.57
2017-09-26T15:26:42.017Z,29.70
2017-09-26T15:29:09.495Z,30.77
2017-09-26T15:31:37.756Z,29.53
2017-09-26T15:34:05.222Z,28.50
2017-09-26T15:36:32.714Z,28.57
2017-09-26T15:39:01.262Z,28.87
2017-09-26T15:41:28.722Z,32.10
2017-09-26T15:43:56.177Z,26.30
2017-09-26T15:46:23.672Z,29.70
2017-09-26T15:48:51.171Z,33.03
2017-09-26T15:51:18.643Z,36.53
2017-09-26T15:53:46.103Z,32.20
2017-09-26T15:56:13.603Z,34.60
2017-09-26T15:58:41.109Z,36.43
2017-09-26T16:01:08.603Z,32.50
2017-09-26T16:03:36.833Z,33.73
2017-09-26T16:06:04.382Z,34.77
2017-09-26T16:08:31.929Z,34.50
2017-09-26T16:10:59.456Z,29.80
2017-09-26T16:13:27.673Z,36.80
2017-09-26T16:15:55.197Z,35.00
2017-09-26T16:18:22.730Z,34.83
2017-09-26T16:20:50.191Z,34.27
2017-09-26T16:23:18.263Z,44.15
2017-09-26T16:25:46.096Z,33.50
2017-09-26T16:28:14.677Z,34.80
2017-09-26T16:30:42.389Z,35.93
2017-09-26T16:33:10.319Z,34.87
2017-09-26T16:35:38.076Z,38.07
2017-09-26T16:38:05.861Z,45.20
2017-09-26T16:40:34.277Z,39.23
2017-09-26T16:43:02.508Z,39.93
2017-09-26T16:45:30.090Z,49.63
2017-09-26T16:47:57.602Z,45.70
2017-09-26T16:50:25.170Z,40.17
2017-09-26T16:52:53.040Z,43.70
2017-09-26T16:55:20.586Z,52.17
2017-09-26T16:57:48.246Z,40.27
2017-09-26T17:00:16.215Z,49.10
2017-09-26T17:02:43.818Z,41.53
2017-09-26T17:05:11.292Z,48.00
2017-09-26T17:07:38.793Z,44.73
2017-09-26T17:10:06.551Z,47.93
2017-09-26T17:12:34.439Z,47.37
2017-09-26T17:15:03.489Z,48.93
2017-09-26T17:17:30.978Z,51.07
2017-09-26T17:19:58.442Z,50.40
2017-09-26T17:22:25.931Z,49.50
2017-09-26T17:24:53.413Z,63.97
2017-09-26T17:27:20.903Z,56.33
2017-09-26T17:29:48.520Z,49.00
2017-09-26T17:32:15.977Z,53.63
2017-09-26T17:34:43.469Z,52.67
2017-09-26T17:37:11.702Z,45.83
2017-09-26T17:39:39.148Z,52.13
2017-09-26T17:42:06.834Z,51.47
2017-09-26T17:44:34.345Z,51.10
2017-09-26T17:47:01.820Z,47.30
2017-09-26T17:49:29.472Z,53.97
2017-09-26T17:51:56.977Z,47.40
2017-09-26T17:54:24.463Z,48.00
2017-09-26T17:56:52.687Z,49.93
2017-09-26T17:59:20.227Z,60.30
2017-09-26T18:01:47.690Z,53.23
2017-09-26T18:04:15.151Z,63.93
2017-09-26T18:06:42.633Z,54.43
2017-09-26T18:09:10.125Z,50.60
2017-09-26T18:11:37.599Z,42.40
2017-09-26T18:14:05.073Z,52.50
2017-09-26T18:16:32.534Z,44.20
2017-09-26T18:19:00.031Z,45.97
2017-09-26T18:21:27.526Z,54.03
2017-09-26T18:23:55.754Z,51.70
2017-09-26T18:26:23.225Z,41.93
2017-09-26T18:28:50.709Z,47.23
2017-09-26T18:31:18.186Z,45.60
2017-09-26T18:33:46.429Z,44.40
2017-09-26T18:36:13.890Z,44.80
2017-09-26T18:38:41.376Z,49.87
2017-09-26T18:41:09.607Z,42.60
2017-09-26T18:43:37.067Z,50.07
2017-09-26T18:46:04.562Z,42.97
2017-09-26T18:48:32.819Z,54.80
2017-09-26T18:51:00.304Z,45.97
2017-09-26T18:53:28.545Z,46.60
2017-09-26T18:55:56.053Z,58.73
2017-09-26T18:58:23.506Z,47.50
2017-09-26T19:00:50.993Z,48.73
2017-09-26T19:03:18.508Z,51.43
2017-09-26T19:05:45.991Z,44.63
2017-09-26T19:08:13.457Z,49.30
2017-09-26T19:10:40.999Z,49.00
2017-09-26T19:13:09.226Z,54.93
2017-09-26T19:15:36.693Z,51.43
2017-09-26T19:18:05.102Z,48.77
2017-09-26T19:20:32.598Z,51.10
2017-09-26T19:23:00.079Z,52.57
2017-09-26T19:25:28.528Z,43.10
2017-09-26T19:27:56.190Z,47.23
2017-09-26T19:30:23.657Z,44.60
2017-09-26T19:32:51.138Z,44.00
2017-09-26T19:35:18.669Z,43.90
2017-09-26T19:37:46.133Z,46.73
2017-09-26T19:40:13.674Z,43.17
2017-09-26T19:42:41.169Z,44.80
2017-09-26T19:45:08.670Z,46.53
2017-09-26T19:47:36.194Z,52.23
2017-09-26T19:50:03.688Z,47.73
2017-09-26T19:52:31.978Z,65.93
2017-09-26T19:54:59.440Z,55.80
2017-09-26T19:57:26.947Z,50.60
2017-09-26T19:59:54.429Z,47.90
2017-09-26T20:02:21.934Z,50.30
2017-09-26T20:04:49.425Z,50.30
2017-09-26T20:07:16.904Z,53.92
2017-09-26T20:09:44.418Z,51.60
2017-09-26T20:12:11.904Z,50.80
2017-09-26T20:14:39.376Z,50.93
2017-09-26T20:17:06.911Z,50.20
2017-09-26T20:19:35.113Z,45.47
2017-09-26T20:22:02.656Z,47.60
2017-09-26T20:24:30.126Z,42.53
2017-09-26T20:26:57.607Z,40.17
2017-09-26T20:29:25.065Z,41.30
2017-09-26T20:31:52.550Z,52.27
2017-09-26T20:34:20.038Z,52.17
2017-09-26T20:36:47.524Z,57.33
2017-09-26T20:39:15.040Z,52.30
2017-09-26T20:41:42.517Z,47.70
2017-09-26T20:44:09.969Z,47.27
2017-09-26T20:46:37.465Z,54.37
2017-09-26T20:49:04.953Z,47.83
2017-09-26T20:51:32.433Z,41.90
2017-09-26T20:53:59.933Z,39.73
2017-09-26T20:56:27.399Z,41.40
2017-09-26T20:58:55.656Z,35.17
2017-09-26T21:01:24.845Z,36.20
2017-09-26T21:03:52.309Z,45.30
2017-09-26T21:06:19.798Z,50.20
2017-09-26T21:08:48.049Z,43.83
2017-09-26T21:11:15.522Z,53.83
2017-09-26T21:13:43.002Z,51.30
2017-09-26T21:16:10.467Z,46.63
2017-09-26T21:18:38.021Z,51.00
2017-09-26T21:21:07.173Z,47.10
2017-09-26T21:23:34.663Z,53.30
2017-09-26T21:26:02.145Z,46.17
2017-09-26T21:28:29.606Z,43.70
2017-09-26T21:30:57.105Z,43.37
2017-09-26T21:33:24.589Z,35.50
2017-09-26T21:35:52.086Z,36.57
2017-09-26T21:38:19.562Z,42.37
2017-09-26T21:40:47.058Z,37.13
2017-09-26T21:43:14.537Z,36.03
2017-09-26T21:45:42.039Z,30.33
2017-09-26T21:48:09.498Z,29.60
2017-09-26T21:50:37.534Z,29.30
2017-09-26T21:53:05.055Z,29.50
2017-09-26T21:55:32.500Z,27.50
2017-09-26T21:57:59.979Z,35.53
2017-09-26T22:00:27.474Z,34.43
2017-09-26T22:02:54.938Z,31.10
2017-09-26T22:05:22.436Z,31.37
2017-09-26T22:07:49.899Z,30.37
2017-09-26T22:10:17.385Z,31.03
2017-09-26T22:12:44.896Z,32.43
2017-09-26T22:15:12.425Z,37.10
2017-09-26T22:17:39.892Z,36.10
2017-09-26T22:20:08.939Z,29.37
2017-09-26T22:22:36.393Z,31.20
2017-09-26T22:25:03.943Z,31.60
2017-09-26T22:27:31.392Z,32.00
2017-09-26T22:29:58.849Z,30.40
2017-09-26T22:32:26.330Z,37.00
2017-09-26T22:34:53.794Z,34.67
2017-09-26T22:37:21.265Z,30.87
2017-09-26T22:39:49.495Z,38.30
2017-09-26T22:42:17.009Z,39.47
2017-09-26T22:44:44.468Z,36.77
2017-09-26T22:47:12.721Z,38.13
2017-09-26T22:49:40.203Z,39.97
2017-09-26T22:52:08.377Z,38.20
2017-09-26T22:54:36.632Z,39.00
2017-09-26T22:57:04.173Z,39.07
2017-09-26T22:59:31.659Z,38.63
2017-09-26T23:01:59.158Z,35.10
2017-09-26T23:04:26.631Z,35.00
2017-09-26T23:06:54.090Z,44.87
2017-09-26T23:09:21.652Z,44.30
2017-09-26T23:11:49.109Z,36.30
2017-09-26T23:14:16.569Z,44.73
2017-09-26T23:16:44.054Z,43.80
2017-09-26T23:19:11.550Z,49.63
2017-09-26T23:21:40.066Z,43.13
2017-09-26T23:24:07.525Z,42.83
2017-09-26T23:26:35.011Z,39.27
2017-09-26T23:29:02.492Z,51.10
2017-09-26T23:31:30.743Z,47.00
2017-09-26T23:33:58.198Z,52.37
2017-09-26T23:36:25.666Z,43.63
2017-09-26T23:38:53.165Z,49.00
2017-09-26T23:41:20.652Z,44.50
2017-09-26T23:43:48.120Z,49.70
2017-09-26T23:46:15.606Z,55.40
2017-09-26T23:48:43.074Z,50.10
2017-09-26T23:51:11.334Z,44.53
2017-09-26T23:53:38.794Z,45.90
2017-09-26T23:56:06.281Z,47.90
2017-09-26T23:58:33.839Z,49.90
